Catriel, Argentina
Current Conditions -  °F | °C
As of 9:00 AM on Monday 22 Dec 2014 (Local Time) from SAZN Reporting Station
Clear Clear  
Wind Chill: 57°   Ceiling: Unl
Heat Index: 57°   Visibility: 6mi
Dew Point: 28°   Wind: 8mph
Humidity: 33%   Direction: 230°SW
Pressure: 30.18"   Gusts: NA
Location:  37.87°S, 67.82°W
Report Text: SAZN 221200Z 23007KT CAVOK 14/M02 Q1022
Loading
Personal Weather Stations






























Interactive Weather Map New forecast layout! Learn more

10-Day Weather Forecast

Advertisements
Track Severe Weather on mobile